createdAt,value
2022-10-26T00:00:15.283Z,1009.8
2022-10-26T00:01:18.091Z,1009.7
2022-10-26T00:02:21.860Z,1009.7
2022-10-26T00:03:25.142Z,1009.7
2022-10-26T00:04:27.659Z,1009.8
2022-10-26T00:05:30.795Z,1009.7
2022-10-26T00:06:33.696Z,1009.7
2022-10-26T00:07:37.339Z,1009.7
2022-10-26T00:08:39.940Z,1009.7
2022-10-26T00:09:42.459Z,1009.7
2022-10-26T00:10:45.880Z,1009.7
2022-10-26T00:11:50.091Z,1009.7
2022-10-26T00:12:52.802Z,1009.7
2022-10-26T00:13:55.516Z,1009.6
2022-10-26T00:14:58.402Z,1009.7
2022-10-26T00:16:01.902Z,1009.7
2022-10-26T00:17:05.033Z,1009.7
2022-10-26T00:18:07.746Z,1009.7
2022-10-26T00:19:09.991Z,1009.7
2022-10-26T00:20:13.346Z,1009.7
2022-10-26T00:21:15.896Z,1009.7
2022-10-26T00:22:19.350Z,1009.7
2022-10-26T00:23:22.437Z,1009.7
2022-10-26T00:24:25.226Z,1009.7
2022-10-26T00:25:27.938Z,1009.7
2022-10-26T00:26:30.852Z,1009.7
2022-10-26T00:27:34.936Z,1009.7
2022-10-26T00:28:38.112Z,1009.7
2022-10-26T00:29:40.729Z,1009.7
2022-10-26T00:30:43.820Z,1009.7
2022-10-26T00:31:47.035Z,1009.7
2022-10-26T00:32:50.106Z,1009.8
2022-10-26T00:33:53.253Z,1009.8
2022-10-26T00:34:56.956Z,1009.7
2022-10-26T00:36:47.795Z,1009.8
2022-10-26T00:37:51.296Z,1009.7
2022-10-26T00:38:54.893Z,1009.7
2022-10-26T00:39:58.047Z,1009.7
2022-10-26T00:41:00.904Z,1009.7
2022-10-26T00:42:04.623Z,1009.7
2022-10-26T00:43:08.726Z,1009.8
2022-10-26T00:44:11.592Z,1009.7
2022-10-26T00:45:14.398Z,1009.8
2022-10-26T00:46:17.644Z,1009.7
2022-10-26T00:47:20.801Z,1009.8
2022-10-26T00:48:24.171Z,1009.7
2022-10-26T00:49:26.859Z,1009.7
2022-10-26T00:50:30.293Z,1009.7
2022-10-26T00:51:33.577Z,1009.8
2022-10-26T00:52:37.311Z,1009.8
2022-10-26T00:53:39.742Z,1009.8
2022-10-26T00:54:43.480Z,1009.8
2022-10-26T00:55:46.647Z,1009.8
2022-10-26T00:56:49.451Z,1009.8
2022-10-26T00:57:52.275Z,1009.8
2022-10-26T00:58:56.431Z,1009.8
2022-10-26T00:59:59.571Z,1009.8
2022-10-26T01:01:02.728Z,1009.8
2022-10-26T01:02:06.350Z,1009.8
2022-10-26T01:03:09.341Z,1009.8
2022-10-26T01:04:11.773Z,1009.8
2022-10-26T01:05:15.213Z,1009.8
2022-10-26T01:06:18.643Z,1009.8
2022-10-26T01:08:25.968Z,1009.8
2022-10-26T01:09:29.388Z,1009.8
2022-10-26T01:10:32.757Z,1009.8
2022-10-26T01:11:35.815Z,1009.8
2022-10-26T01:12:39.159Z,1009.8
2022-10-26T01:13:42.688Z,1009.8
2022-10-26T01:14:46.512Z,1009.7
2022-10-26T01:15:49.385Z,1009.8
2022-10-26T01:16:51.995Z,1009.8
2022-10-26T01:17:55.765Z,1009.8
2022-10-26T01:18:58.915Z,1009.8
2022-10-26T01:20:01.705Z,1009.8
2022-10-26T01:21:04.696Z,1009.9
2022-10-26T01:22:07.796Z,1009.8
2022-10-26T01:23:10.121Z,1009.8
2022-10-26T01:24:13.581Z,1009.8
2022-10-26T01:25:16.534Z,1009.8
2022-10-26T01:26:18.978Z,1009.8
2022-10-26T01:27:21.963Z,1009.8
2022-10-26T01:28:24.674Z,1009.8
2022-10-26T01:29:27.709Z,1009.8
2022-10-26T01:30:31.598Z,1009.8
2022-10-26T01:31:34.382Z,1009.8
2022-10-26T01:32:37.092Z,1009.8
2022-10-26T01:33:39.677Z,1009.8
2022-10-26T01:34:42.713Z,1009.7
2022-10-26T01:35:46.430Z,1009.8
2022-10-26T01:36:49.962Z,1009.7
2022-10-26T01:37:53.380Z,1009.8
2022-10-26T01:38:56.719Z,1009.8
2022-10-26T01:39:59.040Z,1009.8
2022-10-26T01:41:02.107Z,1009.8
2022-10-26T01:42:05.188Z,1009.8
2022-10-26T01:43:07.791Z,1009.7
2022-10-26T01:44:10.776Z,1009.8
2022-10-26T01:45:13.956Z,1009.7
2022-10-26T01:47:21.838Z,1009.7
2022-10-26T01:48:24.658Z,1009.7
2022-10-26T01:49:28.026Z,1009.7
2022-10-26T01:50:30.621Z,1009.7
2022-10-26T01:51:33.331Z,1009.7
2022-10-26T01:52:36.194Z,1009.7
2022-10-26T01:53:39.136Z,1009.7
2022-10-26T01:54:42.208Z,1009.7
2022-10-26T01:55:44.466Z,1009.7
2022-10-26T01:56:47.643Z,1009.7
2022-10-26T01:57:51.422Z,1009.7
2022-10-26T01:58:54.555Z,1009.7
2022-10-26T01:59:57.823Z,1009.7
2022-10-26T02:01:00.666Z,1009.7
2022-10-26T02:02:04.794Z,1009.7
2022-10-26T02:03:07.581Z,1009.7
2022-10-26T02:04:09.900Z,1009.7
2022-10-26T02:05:13.559Z,1009.7
2022-10-26T02:06:16.623Z,1009.6
2022-10-26T02:07:19.058Z,1009.6
2022-10-26T02:08:21.854Z,1009.6
2022-10-26T02:09:23.730Z,1009.6
2022-10-26T02:10:26.030Z,1009.6
2022-10-26T02:11:28.625Z,1009.6
2022-10-26T02:12:31.810Z,1009.6
2022-10-26T02:13:34.866Z,1009.6
2022-10-26T02:14:37.316Z,1009.6
2022-10-26T02:15:39.902Z,1009.6
2022-10-26T02:16:43.100Z,1009.6
2022-10-26T02:17:47.917Z,1009.6
2022-10-26T02:18:53.173Z,1009.5
2022-10-26T02:19:55.333Z,1009.6
2022-10-26T02:20:58.494Z,1009.5
2022-10-26T02:22:01.018Z,1009.5
2022-10-26T02:23:03.614Z,1009.5
2022-10-26T02:24:05.867Z,1009.5
2022-10-26T02:25:09.224Z,1009.4
2022-10-26T02:26:11.740Z,1009.4
2022-10-26T02:27:15.474Z,1009.4
2022-10-26T02:28:19.177Z,1009.4
2022-10-26T02:29:22.635Z,1009.4
2022-10-26T02:30:25.423Z,1009.4
2022-10-26T02:31:29.080Z,1009.4
2022-10-26T02:32:31.557Z,1009.4
2022-10-26T02:33:35.759Z,1009.4
2022-10-26T02:34:38.913Z,1009.4
2022-10-26T02:35:41.992Z,1009.4
2022-10-26T02:36:44.522Z,1009.4
2022-10-26T02:37:48.226Z,1009.4
2022-10-26T02:38:52.131Z,1009.4
2022-10-26T02:39:55.194Z,1009.4
2022-10-26T02:40:58.250Z,1009.4
2022-10-26T02:42:01.363Z,1009.4
2022-10-26T02:43:04.356Z,1009.4
2022-10-26T02:44:07.471Z,1009.4
2022-10-26T02:45:10.171Z,1009.4
2022-10-26T02:46:12.739Z,1009.4
2022-10-26T02:47:15.993Z,1009.4
2022-10-26T02:48:19.632Z,1009.4
2022-10-26T02:49:23.734Z,1009.4
2022-10-26T02:50:26.595Z,1009.4
2022-10-26T02:51:29.440Z,1009.5
2022-10-26T02:52:32.872Z,1009.4
2022-10-26T02:53:35.375Z,1009.5
2022-10-26T02:54:38.506Z,1009.5
2022-10-26T02:55:41.221Z,1009.5
2022-10-26T02:56:44.134Z,1009.5
2022-10-26T02:57:47.595Z,1009.5
2022-10-26T02:58:50.749Z,1009.5
2022-10-26T02:59:53.626Z,1009.5
2022-10-26T03:00:57.004Z,1009.5
2022-10-26T03:01:59.967Z,1009.6
2022-10-26T03:03:03.418Z,1009.5
2022-10-26T03:04:06.582Z,1009.5
2022-10-26T03:05:11.096Z,1009.4
2022-10-26T03:06:14.451Z,1009.5
2022-10-26T03:07:18.020Z,1009.5
2022-10-26T03:08:21.400Z,1009.5
2022-10-26T03:09:26.115Z,1009.5
2022-10-26T03:10:29.574Z,1009.5
2022-10-26T03:11:32.644Z,1009.5
2022-10-26T03:12:36.098Z,1009.5
2022-10-26T03:13:38.820Z,1009.5
2022-10-26T03:14:41.814Z,1009.5
2022-10-26T03:15:45.239Z,1009.5
2022-10-26T03:16:47.825Z,1009.5
2022-10-26T03:17:51.446Z,1009.5
2022-10-26T03:18:54.455Z,1009.5
2022-10-26T03:19:57.310Z,1009.5
2022-10-26T03:21:01.153Z,1009.5
2022-10-26T03:22:04.573Z,1009.5
2022-10-26T03:23:07.920Z,1009.5
2022-10-26T03:24:11.147Z,1009.5
2022-10-26T03:25:14.881Z,1009.5
2022-10-26T03:26:18.261Z,1009.5
2022-10-26T03:27:21.605Z,1009.5
2022-10-26T03:28:25.063Z,1009.5
2022-10-26T03:29:28.006Z,1009.5
2022-10-26T03:30:31.695Z,1009.5
2022-10-26T03:31:33.653Z,1009.5
2022-10-26T03:32:37.384Z,1009.5
2022-10-26T03:33:40.542Z,1009.5
2022-10-26T03:34:44.047Z,1009.4
2022-10-26T03:35:47.151Z,1009.5
2022-10-26T03:36:51.297Z,1009.4
2022-10-26T03:37:53.878Z,1009.4
2022-10-26T03:38:56.819Z,1009.4
2022-10-26T03:39:59.914Z,1009.4
2022-10-26T03:41:02.621Z,1009.4
2022-10-26T03:42:05.062Z,1009.5
2022-10-26T03:43:08.407Z,1009.5
2022-10-26T03:44:11.537Z,1009.4
2022-10-26T03:45:14.707Z,1009.4
2022-10-26T03:46:17.574Z,1009.4
2022-10-26T03:47:20.646Z,1009.4
2022-10-26T03:48:23.165Z,1009.4
2022-10-26T03:49:26.315Z,1009.4
2022-10-26T03:50:29.112Z,1009.4
2022-10-26T03:51:32.321Z,1009.4
2022-10-26T03:52:36.142Z,1009.4
2022-10-26T03:53:39.296Z,1009.5
2022-10-26T03:54:42.715Z,1009.4
2022-10-26T03:55:45.242Z,1009.4
2022-10-26T03:56:54.376Z,1009.4
2022-10-26T03:57:58.460Z,1009.5
2022-10-26T03:59:01.615Z,1009.4
2022-10-26T04:00:04.493Z,1009.4
2022-10-26T04:01:07.590Z,1009.4
2022-10-26T04:02:11.316Z,1009.4
2022-10-26T04:03:14.660Z,1009.5
2022-10-26T04:04:17.418Z,1009.5
2022-10-26T04:05:20.783Z,1009.5
2022-10-26T04:06:23.384Z,1009.5
2022-10-26T04:07:25.737Z,1009.5
2022-10-26T04:08:29.888Z,1009.5
2022-10-26T04:09:32.675Z,1009.5
2022-10-26T04:10:35.737Z,1009.6
2022-10-26T04:11:38.439Z,1009.5
2022-10-26T04:12:41.887Z,1009.6
2022-10-26T04:13:44.755Z,1009.5
2022-10-26T04:14:48.203Z,1009.6
2022-10-26T04:15:51.344Z,1009.6
2022-10-26T04:16:54.875Z,1009.6
2022-10-26T04:17:57.738Z,1009.6
2022-10-26T04:19:00.640Z,1009.6
2022-10-26T04:20:03.717Z,1009.6
2022-10-26T04:21:07.243Z,1009.6
2022-10-26T04:22:10.396Z,1009.5
2022-10-26T04:23:13.807Z,1009.5
2022-10-26T04:24:18.443Z,1009.6
2022-10-26T04:25:20.973Z,1009.6
2022-10-26T04:26:24.056Z,1009.6
2022-10-26T04:27:27.413Z,1009.6
2022-10-26T04:28:29.922Z,1009.6
2022-10-26T04:29:33.269Z,1009.6
2022-10-26T04:30:36.065Z,1009.6
2022-10-26T04:31:38.936Z,1009.6
2022-10-26T04:32:41.545Z,1009.6
2022-10-26T04:33:44.716Z,1009.6
2022-10-26T04:34:47.242Z,1009.6
2022-10-26T04:35:50.503Z,1009.6
2022-10-26T04:36:53.766Z,1009.6
2022-10-26T04:37:57.205Z,1009.6
2022-10-26T04:38:59.967Z,1009.6
2022-10-26T04:40:04.145Z,1009.7
2022-10-26T04:41:07.682Z,1009.6
2022-10-26T04:42:10.116Z,1009.6
2022-10-26T04:43:13.862Z,1009.6
2022-10-26T04:44:16.939Z,1009.5
2022-10-26T04:45:20.675Z,1009.6
2022-10-26T04:46:23.378Z,1009.6
2022-10-26T04:47:26.826Z,1009.6
2022-10-26T04:48:29.897Z,1009.7
2022-10-26T04:49:33.313Z,1009.6
2022-10-26T04:50:36.706Z,1009.6
2022-10-26T04:51:40.198Z,1009.6
2022-10-26T04:52:43.938Z,1009.6
2022-10-26T04:53:46.788Z,1009.6
2022-10-26T04:54:49.920Z,1009.7
2022-10-26T04:55:53.743Z,1009.7
2022-10-26T04:56:56.812Z,1009.7
2022-10-26T04:58:02.095Z,1009.7
2022-10-26T04:59:05.822Z,1009.6
2022-10-26T05:00:08.894Z,1009.7
2022-10-26T05:01:12.230Z,1009.6
2022-10-26T05:02:16.750Z,1009.6
2022-10-26T05:03:20.299Z,1009.6
2022-10-26T05:04:23.370Z,1009.6
2022-10-26T05:05:26.524Z,1009.6
2022-10-26T05:06:28.578Z,1009.7
2022-10-26T05:07:31.287Z,1009.7
2022-10-26T05:08:34.255Z,1009.6
2022-10-26T05:09:37.083Z,1009.7
2022-10-26T05:10:39.926Z,1009.7
2022-10-26T05:11:44.070Z,1009.7
2022-10-26T05:12:47.391Z,1009.7
2022-10-26T05:13:50.244Z,1009.7
2022-10-26T05:14:53.859Z,1009.7
2022-10-26T05:15:56.735Z,1009.7
2022-10-26T05:17:00.092Z,1009.7
2022-10-26T05:18:03.171Z,1009.7
2022-10-26T05:19:06.168Z,1009.7
2022-10-26T05:20:09.162Z,1009.7
2022-10-26T05:21:12.007Z,1009.7
2022-10-26T05:22:15.390Z,1009.7
2022-10-26T05:23:17.423Z,1009.7
2022-10-26T05:24:20.583Z,1009.7
2022-10-26T05:25:23.359Z,1009.7
2022-10-26T05:26:26.555Z,1009.7
2022-10-26T05:27:30.690Z,1009.6
2022-10-26T05:28:33.485Z,1009.7
2022-10-26T05:29:36.766Z,1009.7
2022-10-26T05:30:39.856Z,1009.6
2022-10-26T05:31:43.207Z,1009.6
2022-10-26T05:32:46.240Z,1009.7
2022-10-26T05:33:50.277Z,1009.6
2022-10-26T05:34:53.997Z,1009.6
2022-10-26T05:35:56.532Z,1009.6
2022-10-26T05:36:59.590Z,1009.7
2022-10-26T05:38:02.100Z,1009.7
2022-10-26T05:39:04.608Z,1009.6
2022-10-26T05:40:07.615Z,1009.6
2022-10-26T05:41:10.878Z,1009.7
2022-10-26T05:42:14.376Z,1009.7
2022-10-26T05:43:18.544Z,1009.7
2022-10-26T05:44:21.810Z,1009.7
2022-10-26T05:45:24.691Z,1009.7
2022-10-26T05:46:27.406Z,1009.7
2022-10-26T05:47:30.580Z,1009.7
2022-10-26T05:48:34.297Z,1009.7
2022-10-26T05:49:37.640Z,1009.7
2022-10-26T05:50:40.358Z,1009.7
2022-10-26T05:51:43.791Z,1009.7
2022-10-26T05:52:46.859Z,1009.7
2022-10-26T05:53:50.035Z,1009.7
2022-10-26T05:54:53.122Z,1009.8
2022-10-26T05:55:55.838Z,1009.7
2022-10-26T05:56:59.220Z,1009.8
2022-10-26T05:58:02.146Z,1009.8
2022-10-26T05:59:06.013Z,1009.8
2022-10-26T06:00:09.176Z,1009.8
2022-10-26T06:01:12.011Z,1009.8
2022-10-26T06:02:16.402Z,1009.8
2022-10-26T06:03:19.901Z,1009.8
2022-10-26T06:04:23.425Z,1009.8
2022-10-26T06:05:26.575Z,1009.8
2022-10-26T06:06:29.824Z,1009.8
2022-10-26T06:07:33.180Z,1009.8
2022-10-26T06:08:36.518Z,1009.8
2022-10-26T06:09:39.978Z,1009.8
2022-10-26T06:10:43.120Z,1009.8
2022-10-26T06:11:46.105Z,1009.9
2022-10-26T06:12:50.034Z,1009.9
2022-10-26T06:13:54.791Z,1009.8
2022-10-26T06:14:58.602Z,1009.9
2022-10-26T06:16:01.834Z,1009.9
2022-10-26T06:17:04.831Z,1009.9
2022-10-26T06:18:08.092Z,1009.9
2022-10-26T06:19:10.277Z,1009.9
2022-10-26T06:21:16.694Z,1009.9
2022-10-26T06:22:20.151Z,1009.9
2022-10-26T06:23:23.767Z,1009.9
2022-10-26T06:24:26.657Z,1010
2022-10-26T06:25:29.649Z,1009.9
2022-10-26T06:26:32.359Z,1010
2022-10-26T06:27:35.624Z,1009.9
2022-10-26T06:28:38.686Z,1010
2022-10-26T06:29:41.793Z,1010
2022-10-26T06:30:45.872Z,1010
2022-10-26T06:31:48.766Z,1010
2022-10-26T06:33:18.142Z,1010
2022-10-26T06:34:34.980Z,1010
2022-10-26T06:35:38.053Z,1010
2022-10-26T06:36:41.510Z,1010
2022-10-26T06:37:45.233Z,1010
2022-10-26T06:38:49.364Z,1010
2022-10-26T06:39:55.333Z,1010
2022-10-26T06:40:58.479Z,1010
2022-10-26T06:42:01.006Z,1010
2022-10-26T06:43:04.261Z,1010.1
2022-10-26T06:44:07.438Z,1010
2022-10-26T06:45:10.474Z,1010
2022-10-26T06:46:14.511Z,1010
2022-10-26T06:47:23.393Z,1010
2022-10-26T06:48:26.759Z,1010
2022-10-26T06:49:30.131Z,1010
2022-10-26T06:50:33.392Z,1010
2022-10-26T06:51:36.837Z,1010
2022-10-26T06:52:39.340Z,1010
2022-10-26T06:53:41.285Z,1010
2022-10-26T06:54:44.209Z,1010
2022-10-26T06:55:47.551Z,1010
2022-10-26T06:56:51.062Z,1010
2022-10-26T06:57:54.052Z,1010.1
2022-10-26T06:58:57.293Z,1010.1
2022-10-26T07:00:07.462Z,1010.1
2022-10-26T07:01:10.705Z,1010.1
2022-10-26T07:02:15.719Z,1010.1
2022-10-26T07:03:20.328Z,1010.1
2022-10-26T07:04:24.101Z,1010.1
2022-10-26T07:05:27.554Z,1010.1
2022-10-26T07:06:34.336Z,1010.1
2022-10-26T07:07:42.324Z,1010.1
2022-10-26T07:08:45.135Z,1010.1
2022-10-26T07:09:47.764Z,1010.1
2022-10-26T07:10:50.871Z,1010.1
2022-10-26T07:11:54.938Z,1010.1
2022-10-26T07:12:58.674Z,1010.1
2022-10-26T07:14:01.676Z,1010.1
2022-10-26T07:15:05.554Z,1010.1
2022-10-26T07:16:08.161Z,1010
2022-10-26T07:17:11.662Z,1010
2022-10-26T07:18:15.772Z,1010
2022-10-26T07:19:19.277Z,1010
2022-10-26T07:20:22.357Z,1010.1
2022-10-26T07:21:25.153Z,1010.1
2022-10-26T07:22:28.026Z,1010.1
2022-10-26T07:23:31.516Z,1010.1
2022-10-26T07:24:34.461Z,1010.1
2022-10-26T07:25:38.218Z,1010.1
2022-10-26T07:26:41.637Z,1010.1
2022-10-26T07:27:45.170Z,1010.1
2022-10-26T07:28:49.209Z,1010.1
2022-10-26T07:29:52.622Z,1010.2
2022-10-26T07:30:56.777Z,1010.2
2022-10-26T07:32:00.013Z,1010.2
2022-10-26T07:33:03.076Z,1010.1
2022-10-26T07:34:07.003Z,1010.2
2022-10-26T07:35:09.906Z,1010.2
2022-10-26T07:36:13.077Z,1010.2
2022-10-26T07:37:16.509Z,1010.2
2022-10-26T07:38:19.574Z,1010.2
2022-10-26T07:39:22.940Z,1010.2
2022-10-26T07:40:25.837Z,1010.1
2022-10-26T07:41:29.264Z,1010.2
2022-10-26T07:42:32.692Z,1010.2
2022-10-26T07:43:36.308Z,1010.2
2022-10-26T07:44:39.096Z,1010.2
2022-10-26T07:45:42.467Z,1010.2
2022-10-26T07:46:45.802Z,1010.2
2022-10-26T07:47:48.893Z,1010.2
2022-10-26T07:48:51.736Z,1010.2
2022-10-26T07:49:55.878Z,1010.2
2022-10-26T07:50:59.224Z,1010.2
2022-10-26T07:52:05.646Z,1010.2
2022-10-26T07:53:08.797Z,1010.2
2022-10-26T07:54:11.894Z,1010.2
2022-10-26T07:55:14.419Z,1010.2
2022-10-26T07:56:17.622Z,1010.2
2022-10-26T07:57:21.142Z,1010.2
2022-10-26T07:58:24.879Z,1010.2
2022-10-26T07:59:28.331Z,1010.1
2022-10-26T08:00:31.633Z,1010.2
2022-10-26T08:01:35.294Z,1010.2
2022-10-26T08:02:39.476Z,1010.1
2022-10-26T08:03:42.825Z,1010.2
2022-10-26T08:04:45.935Z,1010.2
2022-10-26T08:05:49.862Z,1010.2
2022-10-26T08:06:53.362Z,1010.1
2022-10-26T08:07:56.528Z,1010.1
2022-10-26T08:09:00.042Z,1010.1
2022-10-26T08:10:03.206Z,1010.2
2022-10-26T08:11:06.011Z,1010.2
2022-10-26T08:12:09.487Z,1010.2
2022-10-26T08:13:12.942Z,1010.2
2022-10-26T08:14:16.174Z,1010.2
2022-10-26T08:15:19.162Z,1010.2
2022-10-26T08:16:22.431Z,1010.2
2022-10-26T08:17:25.647Z,1010.2
2022-10-26T08:18:28.231Z,1010.2
2022-10-26T08:19:32.302Z,1010.2
2022-10-26T08:20:35.809Z,1010.2
2022-10-26T08:21:41.126Z,1010.2
2022-10-26T08:22:44.295Z,1010.1
2022-10-26T08:23:47.688Z,1010.2
2022-10-26T08:24:50.906Z,1010.2
2022-10-26T08:25:54.250Z,1010.2
2022-10-26T08:26:56.959Z,1010.1
2022-10-26T08:28:00.334Z,1010.2
2022-10-26T08:29:03.140Z,1010.2
2022-10-26T08:30:06.801Z,1010.2
2022-10-26T08:31:09.877Z,1010.2
2022-10-26T08:32:12.492Z,1010.2
2022-10-26T08:33:15.936Z,1010.2
2022-10-26T08:34:18.727Z,1010.2
2022-10-26T08:35:21.872Z,1010.1
2022-10-26T08:36:24.795Z,1010.1
2022-10-26T08:37:28.600Z,1010.1
2022-10-26T08:38:32.011Z,1010.1
2022-10-26T08:39:34.805Z,1010.1
2022-10-26T08:40:38.802Z,1010
2022-10-26T08:41:41.401Z,1010.1
2022-10-26T08:42:45.151Z,1010.1
2022-10-26T08:43:48.493Z,1010.1
2022-10-26T08:44:51.831Z,1010
2022-10-26T08:45:54.649Z,1010
2022-10-26T08:46:58.110Z,1010
2022-10-26T08:48:01.555Z,1010
2022-10-26T08:49:05.010Z,1009.9
2022-10-26T08:50:07.807Z,1010
2022-10-26T08:51:11.153Z,1009.9
2022-10-26T08:52:14.352Z,1009.9
2022-10-26T08:53:18.181Z,1009.9
2022-10-26T08:54:20.886Z,1009.9
2022-10-26T08:55:24.610Z,1010
2022-10-26T08:56:27.594Z,1010
2022-10-26T08:57:30.786Z,1009.9
2022-10-26T08:58:34.154Z,1010
2022-10-26T08:59:37.145Z,1010
2022-10-26T09:00:40.479Z,1010
2022-10-26T09:01:44.481Z,1010
2022-10-26T09:02:48.097Z,1010
2022-10-26T09:03:50.314Z,1010
2022-10-26T09:04:53.944Z,1010
2022-10-26T09:05:57.099Z,1010
2022-10-26T09:07:00.305Z,1010
2022-10-26T09:08:03.070Z,1010
2022-10-26T09:09:07.221Z,1010
2022-10-26T09:10:11.241Z,1010
2022-10-26T09:11:14.543Z,1010
2022-10-26T09:12:18.339Z,1010
2022-10-26T09:13:21.800Z,1010
2022-10-26T09:14:25.021Z,1010
2022-10-26T09:15:28.096Z,1010
2022-10-26T09:16:30.879Z,1010
2022-10-26T09:17:34.035Z,1010
2022-10-26T09:18:37.297Z,1010
2022-10-26T09:19:41.152Z,1010
2022-10-26T09:20:44.239Z,1010
2022-10-26T09:21:47.073Z,1010
2022-10-26T09:22:50.624Z,1009.9
2022-10-26T09:23:54.718Z,1010
2022-10-26T09:24:58.839Z,1010
2022-10-26T09:26:10.001Z,1010
2022-10-26T09:27:13.635Z,1010
2022-10-26T09:28:17.634Z,1009.9
2022-10-26T09:29:20.701Z,1009.9
2022-10-26T09:30:24.345Z,1009.9
2022-10-26T09:31:27.570Z,1009.9
2022-10-26T09:32:30.369Z,1009.9
2022-10-26T09:33:33.845Z,1009.9
2022-10-26T09:34:36.834Z,1009.9
2022-10-26T09:35:40.205Z,1009.9
2022-10-26T09:36:43.549Z,1009.9
2022-10-26T09:37:45.999Z,1009.8
2022-10-26T09:38:50.398Z,1009.8
2022-10-26T09:39:53.962Z,1009.9
2022-10-26T09:40:58.076Z,1009.8
2022-10-26T09:42:01.549Z,1009.9
2022-10-26T09:43:04.549Z,1009.8
2022-10-26T09:44:07.626Z,1009.9
2022-10-26T09:45:10.442Z,1009.8
2022-10-26T09:46:13.806Z,1009.8
2022-10-26T09:47:16.260Z,1009.9
2022-10-26T09:48:19.248Z,1009.8
2022-10-26T09:49:22.043Z,1009.8
2022-10-26T09:50:24.553Z,1009.7
2022-10-26T09:51:28.284Z,1009.8
2022-10-26T09:52:31.285Z,1009.7
2022-10-26T09:53:34.646Z,1009.7
2022-10-26T09:54:37.452Z,1009.7
2022-10-26T09:55:40.937Z,1009.7
2022-10-26T09:56:45.093Z,1009.7
2022-10-26T09:57:48.148Z,1009.7
2022-10-26T09:58:50.936Z,1009.7
2022-10-26T09:59:53.653Z,1009.8
2022-10-26T10:00:56.610Z,1009.8
2022-10-26T10:02:00.503Z,1009.7
2022-10-26T10:03:03.809Z,1009.7
2022-10-26T10:04:07.736Z,1009.7
2022-10-26T10:05:10.818Z,1009.7
2022-10-26T10:06:54.423Z,1009.7
2022-10-26T10:07:57.222Z,1009.7
2022-10-26T10:08:59.681Z,1009.7
2022-10-26T10:10:02.334Z,1009.7
2022-10-26T10:11:05.450Z,1009.7
2022-10-26T10:12:09.376Z,1009.7
2022-10-26T10:13:12.533Z,1009.8
2022-10-26T10:14:15.564Z,1009.8
2022-10-26T10:15:18.194Z,1009.8
2022-10-26T10:16:21.001Z,1009.8
2022-10-26T10:17:24.407Z,1009.8
2022-10-26T10:18:27.511Z,1009.8
2022-10-26T10:19:30.315Z,1009.7
2022-10-26T10:20:32.745Z,1009.8
2022-10-26T10:21:35.873Z,1009.8
2022-10-26T10:22:39.080Z,1009.8
2022-10-26T10:23:41.878Z,1009.8
2022-10-26T10:24:44.693Z,1009.8
2022-10-26T10:25:47.769Z,1009.7
2022-10-26T10:26:50.406Z,1009.7
2022-10-26T10:27:54.222Z,1009.7
2022-10-26T10:28:57.301Z,1009.7
2022-10-26T10:30:04.733Z,1009.6
2022-10-26T10:31:07.509Z,1009.7
2022-10-26T10:32:09.967Z,1009.6
2022-10-26T10:33:12.958Z,1009.6
2022-10-26T10:34:15.950Z,1009.7
2022-10-26T10:35:18.743Z,1009.6
2022-10-26T10:36:21.462Z,1009.6
2022-10-26T10:37:24.067Z,1009.6
2022-10-26T10:38:27.715Z,1009.6
2022-10-26T10:39:30.715Z,1009.6
2022-10-26T10:40:33.592Z,1009.7
2022-10-26T10:41:37.154Z,1009.6
2022-10-26T10:42:40.026Z,1009.7
2022-10-26T10:43:44.124Z,1009.6
2022-10-26T10:44:47.551Z,1009.7
2022-10-26T10:45:50.059Z,1009.7
2022-10-26T10:47:01.610Z,1009.7
2022-10-26T10:48:03.755Z,1009.7
2022-10-26T10:49:06.474Z,1009.7
2022-10-26T10:50:09.977Z,1009.7
2022-10-26T10:51:13.402Z,1009.7
2022-10-26T10:52:16.389Z,1009.7
2022-10-26T10:53:19.675Z,1009.7
2022-10-26T10:54:22.110Z,1009.7
2022-10-26T10:55:25.386Z,1009.7
2022-10-26T10:56:28.454Z,1009.7
2022-10-26T10:57:31.528Z,1009.7
2022-10-26T10:58:34.756Z,1009.7
2022-10-26T10:59:39.292Z,1009.6
2022-10-26T11:00:42.432Z,1009.6
2022-10-26T11:01:45.685Z,1009.6
2022-10-26T11:02:49.509Z,1009.6
2022-10-26T11:03:52.708Z,1009.6
2022-10-26T11:04:56.061Z,1009.6
2022-10-26T11:05:58.770Z,1009.6
2022-10-26T11:07:02.133Z,1009.6
2022-10-26T11:08:05.197Z,1009.6
2022-10-26T11:09:08.097Z,1009.6
2022-10-26T11:10:11.718Z,1009.6
2022-10-26T11:11:15.071Z,1009.6
2022-10-26T11:12:17.733Z,1009.6
2022-10-26T11:13:20.523Z,1009.6
2022-10-26T11:14:23.638Z,1009.7
2022-10-26T11:15:27.540Z,1009.7
2022-10-26T11:16:30.611Z,1009.7
2022-10-26T11:17:33.704Z,1009.7
2022-10-26T11:18:36.219Z,1009.7
2022-10-26T11:19:39.099Z,1009.7
2022-10-26T11:20:41.990Z,1009.7
2022-10-26T11:21:44.980Z,1009.7
2022-10-26T11:22:48.715Z,1009.6
2022-10-26T11:23:54.500Z,1009.7
2022-10-26T11:24:57.918Z,1009.7
2022-10-26T11:26:00.706Z,1009.7
2022-10-26T11:27:03.779Z,1009.7
2022-10-26T11:28:06.670Z,1009.7
2022-10-26T11:29:09.487Z,1009.7
2022-10-26T11:30:12.949Z,1009.6
2022-10-26T11:31:17.568Z,1009.7
2022-10-26T11:32:20.319Z,1009.7
2022-10-26T11:33:22.842Z,1009.7
2022-10-26T11:34:25.918Z,1009.7
2022-10-26T11:35:29.381Z,1009.7
2022-10-26T11:36:32.169Z,1009.7
2022-10-26T11:37:35.468Z,1009.6
2022-10-26T11:38:56.637Z,1009.7
2022-10-26T11:40:08.925Z,1009.7
2022-10-26T11:41:12.541Z,1009.7
2022-10-26T11:42:15.125Z,1009.7
2022-10-26T11:43:17.653Z,1009.7
2022-10-26T11:44:20.608Z,1009.6
2022-10-26T11:45:23.717Z,1009.6
2022-10-26T11:46:27.811Z,1009.6
2022-10-26T11:47:30.870Z,1009.6
2022-10-26T11:48:34.423Z,1009.6
2022-10-26T11:49:37.510Z,1009.7
2022-10-26T11:50:40.882Z,1009.7
2022-10-26T11:51:43.749Z,1009.8
2022-10-26T11:52:46.059Z,1009.7
2022-10-26T11:53:50.400Z,1009.7
2022-10-26T11:54:53.206Z,1009.7
2022-10-26T11:55:56.647Z,1009.6
2022-10-26T11:57:00.689Z,1009.6
2022-10-26T11:58:03.484Z,1009.6
2022-10-26T11:59:06.825Z,1009.7
2022-10-26T12:00:09.152Z,1009.6
2022-10-26T12:01:13.224Z,1009.6
2022-10-26T12:02:17.627Z,1009.6
2022-10-26T12:03:20.152Z,1009.6
2022-10-26T12:04:23.000Z,1009.5
2022-10-26T12:05:25.435Z,1009.6
2022-10-26T12:06:28.622Z,1009.5
2022-10-26T12:07:31.452Z,1009.6
2022-10-26T12:08:34.516Z,1009.5
2022-10-26T12:09:38.511Z,1009.5
2022-10-26T12:10:41.305Z,1009.5
2022-10-26T12:11:45.053Z,1009.6
2022-10-26T12:12:49.633Z,1009.5
2022-10-26T12:13:54.371Z,1009.6
2022-10-26T12:14:57.461Z,1009.7
2022-10-26T12:16:05.252Z,1009.7
2022-10-26T12:17:08.746Z,1009.7
2022-10-26T12:18:12.839Z,1009.7
2022-10-26T12:19:16.013Z,1009.6
2022-10-26T12:20:19.063Z,1009.6
2022-10-26T12:21:22.058Z,1009.6
2022-10-26T12:22:25.859Z,1009.6
2022-10-26T12:23:51.262Z,1009.7
2022-10-26T12:24:55.463Z,1009.6
2022-10-26T12:25:58.064Z,1009.6
2022-10-26T12:27:01.032Z,1009.7
2022-10-26T12:28:04.112Z,1009.6
2022-10-26T12:29:06.835Z,1009.6
2022-10-26T12:30:10.631Z,1009.6
2022-10-26T12:31:14.120Z,1009.7
2022-10-26T12:32:17.046Z,1009.6
2022-10-26T12:33:20.880Z,1009.6
2022-10-26T12:34:24.332Z,1009.7
2022-10-26T12:35:27.770Z,1009.7
2022-10-26T12:36:31.110Z,1009.7
2022-10-26T12:37:37.615Z,1009.7
2022-10-26T12:38:40.297Z,1009.7
2022-10-26T12:39:43.638Z,1009.7
2022-10-26T12:40:47.020Z,1009.7
2022-10-26T12:41:49.819Z,1009.7
2022-10-26T12:42:52.753Z,1009.7
2022-10-26T12:43:56.205Z,1009.7
2022-10-26T12:44:59.295Z,1009.7
2022-10-26T12:46:02.289Z,1009.7
2022-10-26T12:47:05.383Z,1009.7
2022-10-26T12:48:27.866Z,1009.6
2022-10-26T12:49:43.170Z,1009.6
2022-10-26T12:50:46.564Z,1009.7
2022-10-26T12:51:49.705Z,1009.7
2022-10-26T12:52:53.891Z,1009.7
2022-10-26T12:53:58.327Z,1009.7
2022-10-26T12:55:02.039Z,1009.7
2022-10-26T12:56:05.578Z,1009.7
2022-10-26T12:57:09.581Z,1009.7
2022-10-26T12:58:12.955Z,1009.7
2022-10-26T12:59:16.674Z,1009.8
2022-10-26T13:00:19.890Z,1009.8
2022-10-26T13:01:23.519Z,1009.8
2022-10-26T13:02:27.207Z,1009.7
2022-10-26T13:03:30.703Z,1009.7
2022-10-26T13:04:34.233Z,1009.8
2022-10-26T13:05:38.050Z,1009.8
2022-10-26T13:06:41.765Z,1009.8
2022-10-26T13:07:44.554Z,1009.8
2022-10-26T13:08:47.835Z,1009.8
2022-10-26T13:09:51.076Z,1009.8
2022-10-26T13:10:55.079Z,1009.8
2022-10-26T13:11:57.639Z,1009.7
2022-10-26T13:13:00.421Z,1009.8
2022-10-26T13:14:03.137Z,1009.8
2022-10-26T13:15:06.205Z,1009.8
2022-10-26T13:16:09.271Z,1009.7
2022-10-26T13:17:12.421Z,1009.7
2022-10-26T13:18:15.503Z,1009.7
2022-10-26T13:19:23.211Z,1009.7
2022-10-26T13:20:27.106Z,1009.7